Skip to main content.

Nearby METAR Reports

 

KJYR - York, Nebraska, USA
Distance from station: NW 27mi, 43km
Updated: Sun, 23-Jul-2017 9:15pm CDT
Clear
Clear
 Wind from E
Wind: E 3 mph , 6 km/h
Temperature: 73°F , 23°C
Dew Point: 68°F , 20°C
Humidity: 83%
Barometer: 29.98 inHg , 1015.2 hPa
Clouds: Clear
Visibility: 10 miles , 16 km
2017/07/24 02:15 KJYR 240215Z AUTO 08003KT 10SM CLR 23/20 A2998 RMK AO2
KLNK - Lincoln, Nebraska, USA
Distance from station: ENE 27mi, 44km
Updated: Sun, 23-Jul-2017 8:54pm CDT
Clear
Clear
 Wind from NNE
Wind: NNE 5 mph , 7 km/h
Temperature: 75°F , 24°C
Dew Point: 64°F , 18°C
Humidity: 69%
Barometer: 29.96 inHg , 1014.6 hPa
Clouds: Clear
Visibility: 10 miles , 16 km
2017/07/24 01:54 KLNK 240154Z 02004KT 10SM CLR 24/18 A2996 RMK AO2 SLP133 T02440178
 
KBIE - Beatrice Municip, Nebraska, USA
Distance from station: SE 36mi, 58km
Updated: Sun, 23-Jul-2017 9:15pm CDT
Clear
Clear
 Wind from NE
Wind: NE 5 mph , 7 km/h
Temperature: 77°F , 25°C
Dew Point: 66°F , 19°C
Humidity: 69%
Barometer: 29.96 inHg , 1014.6 hPa
Clouds: Clear
Visibility: 10 miles , 16 km
2017/07/24 02:15 KBIE 240215Z AUTO 04004KT 10SM CLR 25/19 A2996 RMK AO2 T02470191
KHJH - Hebron Muni, Nebraska, USA
Distance from station: SSW 40mi, 64km
Updated: Sun, 23-Jul-2017 9:15pm CDT
Clear
Clear
 Wind from ENE
Wind: ENE 3 mph , 6 km/h
Temperature: 79°F , 26°C
Dew Point: 68°F , 20°C
Humidity: 70%
Barometer: 29.96 inHg , 1014.6 hPa
Clouds: Clear
Visibility: 10 miles , 16 km
2017/07/24 02:15 KHJH 240215Z AUTO 06003KT 10SM CLR 26/20 A2996 RMK AO2 T02610200
 
KAUH - Aurora, Nebraska, USA
Distance from station: WNW 44mi, 70km
Updated: Sun, 23-Jul-2017 9:15pm CDT
Clear
Clear
 Wind from ENE
Wind: ENE 7 mph , 11 km/h
Temperature: 73°F , 23°C
Dew Point: 70°F , 21°C
Humidity: 89%
Barometer: 29.98 inHg , 1015.2 hPa
Clouds: Clear
Visibility: 10 miles , 16 km
2017/07/24 02:15 KAUH 240215Z AUTO 07006KT 10SM CLR 23/21 A2998 RMK AO2 T02280210
KAHQ - Wahoo, Nebraska, USA
Distance from station: NE 51mi, 82km
Updated: Sun, 23-Jul-2017 9:15pm CDT
Clear
Clear
 Wind from N
Wind: N 7 mph , 11 km/h
Temperature: 72°F , 22°C
Dew Point: 63°F , 17°C
Humidity: 73%
Barometer: 29.96 inHg , 1014.6 hPa
Clouds: Clear
Visibility: 10 miles , 16 km
2017/07/24 02:15 KAHQ 240215Z AUTO 36006KT 10SM CLR 22/17 A2996 RMK AO2 T02160170
 
KOLU - Columbus Muni, Nebraska, USA
Distance from station: N 55mi, 88km
Updated: Sun, 23-Jul-2017 8:56pm CDT
Clear
Clear
 Wind from NNE
Wind: NNE 8 mph , 13 km/h
Temperature: 72°F , 22°C
Dew Point: 63°F , 17°C
Humidity: 73%
Barometer: 29.97 inHg , 1014.9 hPa
Clouds: Clear
Visibility: 10 miles , 16 km
2017/07/24 01:56 KOLU 240156Z AUTO 03007KT 10SM CLR 22/17 A2997 RMK AO2 SLP142 T02220172
KGRI - Grand Island, Nebraska, USA
Distance from station: WNW 61mi, 99km
Updated: Sun, 23-Jul-2017 8:53pm CDT
Clear
Clear
 Wind from E
Wind: E 6 mph , 9 km/h
Temperature: 77°F , 25°C
Dew Point: 66°F , 19°C
Humidity: 69%
Barometer: 29.98 inHg , 1015.2 hPa
Clouds: Clear
Visibility: 10 miles , 16 km
2017/07/24 01:53 KGRI 240153Z AUTO 09005KT 10SM CLR 25/19 A2998 RMK AO2 SLP142 T02500189
 
KHSI - Hastings, Nebraska, USA
Distance from station: W 64mi, 103km
Updated: Sun, 23-Jul-2017 8:53pm CDT
Clear
Clear
 Wind from E
Wind: E 6 mph , 9 km/h
Temperature: 77°F , 25°C
Dew Point: 68°F , 20°C
Humidity: 74%
Barometer: 29.99 inHg , 1015.6 hPa
Clouds: Clear
Visibility: 10 miles , 16 km
2017/07/24 01:53 KHSI 240153Z AUTO 08005KT 10SM CLR 25/20 A2999 RMK AO2 SLP138 T02500200 $
KFET - Fremont Muni Arp, Nebraska, USA
Distance from station: NNE 66mi, 106km
Updated: Sun, 23-Jul-2017 9:15pm CDT
Clear
Clear
 Wind from calm
Wind: Calm
Temperature: 75°F , 24°C
Dew Point: 61°F , 16°C
Humidity: 61%
Barometer: 29.97 inHg , 1014.9 hPa
Clouds: Clear
Visibility: 10 miles , 16 km
2017/07/24 02:15 KFET 240215Z AUTO 00000KT 10SM CLR 24/16 A2997 RMK AO2 T02440160
 
KMLE - Omaha/Millard, Nebraska, USA
Distance from station: NE 69mi, 110km
Updated: Sun, 23-Jul-2017 9:15pm CDT
Clear
Clear
 Wind from N
Wind: N 3 mph , 6 km/h
Temperature: 82°F , 28°C
Heat Index: 82°F , 28°C
Dew Point: 61°F , 16°C
Humidity: 48%
Barometer: 29.95 inHg , 1014.2 hPa
Clouds: Clear
Visibility: 10 miles , 16 km
2017/07/24 02:15 KMLE 240215Z AUTO 01003KT 10SM CLR 28/16 A2995 RMK AO2 T02750161
KPMV - Plattsmouth Muni, Nebraska, USA
Distance from station: ENE 71mi, 114km
Updated: Sun, 23-Jul-2017 9:15pm CDT
Clear
Clear
 Wind from N
Wind: N 3 mph , 6 km/h
Temperature: 75°F , 24°C
Dew Point: 59°F , 15°C
Humidity: 57%
Barometer: 29.94 inHg , 1013.9 hPa
Clouds: Clear
Visibility: 10 miles , 16 km
2017/07/24 02:15 KPMV 240215Z AUTO 36003KT 10SM CLR 24/15 A2994 RMK AO2 T02410147
 
KAFK - Nebraska City, Nebraska, USA
Distance from station: E 72mi, 116km
Updated: Sun, 23-Jul-2017 9:15pm CDT
Clear
Clear
 Wind from NNE
Wind: NNE 3 mph , 6 km/h
Temperature: 75°F , 24°C
Dew Point: 68°F , 20°C
Humidity: 78%
Barometer: 29.95 inHg , 1014.2 hPa
Clouds: Clear
Visibility: 10 miles , 16 km
2017/07/24 02:15 KAFK 240215Z AUTO 03003KT 10SM CLR 24/20 A2995 RMK AO2 T02390197
KOFF - Offutt Afb/Belle, Nebraska, USA
Distance from station: ENE 75mi, 121km
Updated: Sun, 23-Jul-2017 8:56pm CDT
Clear
Clear
 Wind from N
Wind: N 7 mph , 11 km/h
Temperature: 79°F , 26°C
Dew Point: 61°F , 16°C
Humidity: 54%
Barometer: 29.93 inHg , 1013.5 hPa
Clouds: Clear
Visibility: 10 miles , 16 km
2017/07/24 01:56 KOFF 240156Z AUTO 01006KT 10SM CLR 26/16 A2993 RMK AO2 SLP132 T02580155 $
 
KBTA - Blair Muni, Nebraska, USA
Distance from station: NE 78mi, 125km
Updated: Sun, 23-Jul-2017 9:15pm CDT
Clear
Clear
 Wind from N
Wind: N 6 mph , 9 km/h
Temperature: 75°F , 24°C
Dew Point: 61°F , 16°C
Humidity: 61%
Barometer: 29.96 inHg , 1014.6 hPa
Clouds: Clear
Visibility: 10 miles , 16 km
2017/07/24 02:15 KBTA 240215Z AUTO 01005KT 10SM CLR 24/16 A2996 RMK AO2 T02410160
KCNK - Concordia, Kansas, USA
Distance from station: SSW 80mi, 129km
Updated: Sun, 23-Jul-2017 8:55pm CDT
Clear
Clear
 Wind from NNE
Wind: NNE 3 mph , 6 km/h
Temperature: 82°F , 28°C
Heat Index: 86°F , 30°C
Dew Point: 72°F , 22°C
Humidity: 70%
Barometer: 29.93 inHg , 1013.5 hPa
Clouds: Clear
Visibility: 10 miles , 16 km
2017/07/24 01:55 KCNK 240155Z AUTO 03003KT 10SM CLR 28/22 A2993 RMK AO2 SLP119 T02780217
 
KOMA - Omaha/Eppley, Nebraska, USA
Distance from station: NE 82mi, 133km
Updated: Sun, 23-Jul-2017 8:52pm CDT
Partly Cloudy
Partly Cloudy
 Wind from N
Wind: N 6 mph , 9 km/h
Temperature: 77°F , 25°C
Dew Point: 63°F , 17°C
Humidity: 61%
Barometer: 29.93 inHg , 1013.5 hPa
Clouds: Partly Cloudy
Visibility: 10 miles , 16 km
Cloud details: Partly Cloudy 12000 ft
2017/07/24 01:52 KOMA 240152Z 35005KT 10SM SCT120 25/17 A2993 RMK AO2 SLP128 T02500172
KBVN - Albion Muni, Nebraska, USA
Distance from station: NNW 86mi, 138km
Updated: Sun, 23-Jul-2017 9:15pm CDT
Clear
Clear
 Wind from ENE
Wind: ENE 7 mph , 11 km/h
Temperature: 73°F , 23°C
Dew Point: 63°F , 17°C
Humidity: 69%
Barometer: 29.99 inHg , 1015.6 hPa
Clouds: Clear
Visibility: 10 miles , 16 km
2017/07/24 02:15 KBVN 240215Z AUTO 06006KT 10SM CLR 23/17 A2999 RMK AO2 T02250171
 
KCBF - Council Bluffs, Iowa, USA
Distance from station: ENE 87mi, 139km
Updated: Sun, 23-Jul-2017 9:15pm CDT
Clear
Clear
 Wind from NNE
Wind: NNE 6 mph , 9 km/h
Temperature: 73°F , 23°C
Dew Point: 64°F , 18°C
Humidity: 74%
Barometer: 29.95 inHg , 1014.2 hPa
Clouds: Clear
Visibility: 10 miles , 16 km
2017/07/24 02:15 KCBF 240215Z AUTO 03005KT 10SM CLR 23/18 A2995 RMK AO2
KOFK - Norfolk, Nebraska, USA
Distance from station: N 92mi, 148km
Updated: Sun, 23-Jul-2017 8:56pm CDT
Clear
Clear
 Wind from E
Wind: E 6 mph , 9 km/h
Temperature: 75°F , 24°C
Dew Point: 55°F , 13°C
Humidity: 50%
Barometer: 29.98 inHg , 1015.2 hPa
Clouds: Clear
Visibility: 10 miles , 16 km
2017/07/24 01:56 KOFK 240156Z AUTO 09005KT 10SM CLR 24/13 A2998 RMK AO2 SLP141 T02390133

Metar display script from Saratoga-Weather.org